Time,TemperatureF,DewpointF,PressureIn,WindDirection,WindDirectionDegrees,WindSpeedMPH,WindSpeedGustMPH,Humidity,HourlyPrecipIn,Conditions,Clouds,dailyrainin,SoftwareType,DateUTC
2013-08-23 00:01:00,72.8,68.4,29.73,WSW,257,1.0,2.0,86,0.00,,,0.00,Wunderground v.1.12,2013-08-23 04:01:00,
2013-08-23 00:03:00,73.2,68.1,29.73,WNW,293,2.0,12.0,84,0.00,,,0.00,Wunderground v.1.12,2013-08-23 04:03:00,
2013-08-23 00:08:00,72.5,68.1,29.73,West,259,1.0,4.0,86,0.00,,,0.00,Wunderground v.1.12,2013-08-23 04:08:00,
2013-08-23 00:14:00,72.5,68.1,29.73,West,262,1.0,1.0,86,0.00,,,0.00,Wunderground v.1.12,2013-08-23 04:14:00,
2013-08-23 00:20:00,72.5,68.1,29.73,West,262,2.0,2.0,86,0.00,,,0.00,Wunderground v.1.12,2013-08-23 04:20:00,
2013-08-23 00:25:00,72.5,68.4,29.73,West,264,2.0,3.0,87,0.00,,,0.00,Wunderground v.1.12,2013-08-23 04:25:00,
2013-08-23 00:31:00,72.3,68.2,29.73,WSW,246,2.0,4.0,87,0.00,,,0.00,Wunderground v.1.12,2013-08-23 04:31:00,
2013-08-23 00:37:00,72.5,68.4,29.73,WNW,286,2.0,4.0,87,0.00,,,0.00,Wunderground v.1.12,2013-08-23 04:37:00,
2013-08-23 00:42:00,72.5,68.1,29.73,WNW,287,2.0,3.0,86,0.00,,,0.00,Wunderground v.1.12,2013-08-23 04:42:00,
2013-08-23 00:48:00,72.7,68.3,29.73,West,275,2.0,4.0,86,0.00,,,0.00,Wunderground v.1.12,2013-08-23 04:48:00,
2013-08-23 00:54:00,72.7,68.3,29.73,West,270,2.0,7.0,86,0.00,,,0.00,Wunderground v.1.12,2013-08-23 04:54:00,
2013-08-23 01:00:00,72.5,68.1,29.73,West,269,2.0,2.0,86,0.00,,,0.00,Wunderground v.1.12,2013-08-23 05:00:00,
2013-08-23 01:06:00,72.5,68.1,29.73,West,269,1.0,5.0,86,0.00,,,0.00,Wunderground v.1.12,2013-08-23 05:06:00,
2013-08-23 01:12:00,72.3,68.2,29.73,West,269,1.0,3.0,87,0.00,,,0.00,Wunderground v.1.12,2013-08-23 05:12:00,
2013-08-23 01:18:00,72.3,68.2,29.73,West,270,1.0,3.0,87,0.00,,,0.00,Wunderground v.1.12,2013-08-23 05:18:00,
2013-08-23 01:23:00,72.3,68.2,29.73,West,264,2.0,8.0,87,0.00,,,0.00,Wunderground v.1.12,2013-08-23 05:23:00,
2013-08-23 01:28:00,72.3,67.9,29.73,West,268,3.0,5.0,86,0.00,,,0.00,Wunderground v.1.12,2013-08-23 05:28:00,
2013-08-23 01:34:00,72.3,67.9,29.73,West,281,4.0,6.0,86,0.00,,,0.00,Wunderground v.1.12,2013-08-23 05:34:00,
2013-08-23 01:40:00,72.1,67.7,29.73,WNW,287,3.0,3.0,86,0.00,,,0.00,Wunderground v.1.12,2013-08-23 05:40:00,
2013-08-23 01:46:00,72.0,67.6,29.73,West,275,3.0,4.0,86,0.00,,,0.00,Wunderground v.1.12,2013-08-23 05:46:00,
2013-08-23 01:51:00,72.0,67.6,29.74,West,274,3.0,3.0,86,0.00,,,0.00,Wunderground v.1.12,2013-08-23 05:51:00,
2013-08-23 01:57:00,72.0,67.6,29.74,West,274,3.0,6.0,86,0.00,,,0.00,Wunderground v.1.12,2013-08-23 05:57:00,
2013-08-23 02:03:00,72.3,67.9,29.73,West,270,2.0,9.0,86,0.00,,,0.00,Wunderground v.1.12,2013-08-23 06:03:00,
2013-08-23 02:09:00,71.8,67.4,29.74,West,281,2.0,4.0,86,0.00,,,0.00,Wunderground v.1.12,2013-08-23 06:09:00,
2013-08-23 02:15:00,71.8,67.0,29.74,WNW,286,2.0,3.0,85,0.00,,,0.00,Wunderground v.1.12,2013-08-23 06:15:00,
2013-08-23 02:21:00,71.8,66.7,29.74,WSW,240,3.0,7.0,84,0.00,,,0.00,Wunderground v.1.12,2013-08-23 06:21:00,
2013-08-23 02:27:00,71.8,66.4,29.74,West,281,3.0,4.0,83,0.00,,,0.00,Wunderground v.1.12,2013-08-23 06:27:00,
2013-08-23 02:33:00,71.8,66.4,29.74,West,268,3.0,5.0,83,0.00,,,0.00,Wunderground v.1.12,2013-08-23 06:33:00,
2013-08-23 02:38:00,71.8,67.4,29.74,West,270,3.0,11.0,86,0.00,,,0.00,Wunderground v.1.12,2013-08-23 06:38:00,
2013-08-23 02:43:00,71.8,66.4,29.74,WNW,300,3.0,3.0,83,0.00,,,0.00,Wunderground v.1.12,2013-08-23 06:43:00,
2013-08-23 02:49:00,71.8,66.4,29.74,WNW,295,2.0,6.0,83,0.00,,,0.00,Wunderground v.1.12,2013-08-23 06:49:00,
2013-08-23 02:55:00,71.8,66.4,29.74,West,267,3.0,3.0,83,0.00,,,0.00,Wunderground v.1.12,2013-08-23 06:55:00,
2013-08-23 03:01:00,71.6,66.2,29.74,WNW,287,4.0,6.0,83,0.00,,,0.00,Wunderground v.1.12,2013-08-23 07:01:00,
2013-08-23 03:06:00,71.5,66.1,29.74,West,278,3.0,5.0,83,0.00,,,0.00,Wunderground v.1.12,2013-08-23 07:06:00,
2013-08-23 03:12:00,71.5,66.1,29.74,WNW,285,2.0,5.0,83,0.00,,,0.00,Wunderground v.1.12,2013-08-23 07:12:00,
2013-08-23 03:18:00,71.3,65.9,29.74,West,274,3.0,5.0,83,0.00,,,0.00,Wunderground v.1.12,2013-08-23 07:18:00,
2013-08-23 03:24:00,71.3,65.9,29.74,West,275,3.0,6.0,83,0.00,,,0.00,Wunderground v.1.12,2013-08-23 07:24:00,
2013-08-23 03:30:00,71.1,65.3,29.74,West,271,3.0,4.0,82,0.00,,,0.00,Wunderground v.1.12,2013-08-23 07:30:00,
2013-08-23 03:36:00,71.1,65.0,29.74,WNW,299,3.0,4.0,81,0.00,,,0.00,Wunderground v.1.12,2013-08-23 07:36:00,
2013-08-23 03:41:00,70.9,65.1,29.74,WNW,293,3.0,4.0,82,0.00,,,0.00,Wunderground v.1.12,2013-08-23 07:41:00,
2013-08-23 03:47:00,70.6,64.8,29.74,WNW,293,2.0,2.0,82,0.00,,,0.00,Wunderground v.1.12,2013-08-23 07:47:00,
2013-08-23 03:53:00,70.3,64.9,29.74,WNW,286,1.0,5.0,83,0.00,,,0.00,Wunderground v.1.12,2013-08-23 07:53:00,
2013-08-23 03:58:00,70.3,64.9,29.74,WNW,286,2.0,5.0,83,0.00,,,0.00,Wunderground v.1.12,2013-08-23 07:58:00,
2013-08-23 04:04:00,70.1,64.3,29.73,WNW,285,2.0,3.0,82,0.00,,,0.00,Wunderground v.1.12,2013-08-23 08:04:00,
2013-08-23 04:10:00,69.9,64.2,29.73,WNW,298,1.0,1.0,82,0.00,,,0.00,Wunderground v.1.12,2013-08-23 08:10:00,
2013-08-23 04:15:00,69.6,63.9,29.73,WNW,298,1.0,1.0,82,0.00,,,0.00,Wunderground v.1.12,2013-08-23 08:15:00,
2013-08-23 04:21:00,69.3,63.9,29.74,WNW,298,1.0,1.0,83,0.00,,,0.00,Wunderground v.1.12,2013-08-23 08:21:00,
2013-08-23 04:27:00,69.3,63.6,29.74,WNW,298,1.0,1.0,82,0.00,,,0.00,Wunderground v.1.12,2013-08-23 08:27:00,
2013-08-23 04:33:00,70.1,64.3,29.73,WNW,293,2.0,8.0,82,0.00,,,0.00,Wunderground v.1.12,2013-08-23 08:33:00,
2013-08-23 04:41:00,68.6,63.2,29.74,WNW,298,1.0,1.0,83,0.00,,,0.00,Wunderground v.1.12,2013-08-23 08:41:00,
2013-08-23 04:47:00,68.4,63.0,29.74,WNW,296,1.0,1.0,83,0.00,,,0.00,Wunderground v.1.12,2013-08-23 08:47:00,
2013-08-23 04:53:00,68.4,63.0,29.75,WNW,297,0.0,1.0,83,0.00,,,0.00,Wunderground v.1.12,2013-08-23 08:53:00,
2013-08-23 04:58:00,68.4,63.0,29.75,WNW,297,1.0,2.0,83,0.00,,,0.00,Wunderground v.1.12,2013-08-23 08:58:00,
2013-08-23 05:03:00,69.1,63.7,29.74,WNW,293,1.0,8.0,83,0.00,,,0.00,Wunderground v.1.12,2013-08-23 09:03:00,
2013-08-23 05:08:00,68.1,62.7,29.76,WNW,297,1.0,3.0,83,0.00,,,0.00,Wunderground v.1.12,2013-08-23 09:08:00,
2013-08-23 05:14:00,68.1,62.7,29.76,WNW,297,1.0,1.0,83,0.00,,,0.00,Wunderground v.1.12,2013-08-23 09:14:00,
2013-08-23 05:20:00,67.9,62.5,29.76,WNW,298,0.0,1.0,83,0.00,,,0.00,Wunderground v.1.12,2013-08-23 09:20:00,
2013-08-23 05:26:00,67.9,62.2,29.76,WNW,298,0.0,2.0,82,0.00,,,0.00,Wunderground v.1.12,2013-08-23 09:26:00,
2013-08-23 05:31:00,67.8,62.1,29.76,WNW,297,1.0,2.0,82,0.00,,,0.00,Wunderground v.1.12,2013-08-23 09:31:00,
2013-08-23 05:38:00,68.3,62.9,29.76,WNW,293,1.0,6.0,83,0.00,,,0.00,Wunderground v.1.12,2013-08-23 09:38:00,
2013-08-23 05:43:00,67.8,61.8,29.76,WNW,291,1.0,4.0,81,0.00,,,0.00,Wunderground v.1.12,2013-08-23 09:43:00,
2013-08-23 05:48:00,67.6,61.6,29.77,WNW,293,2.0,3.0,81,0.00,,,0.00,Wunderground v.1.12,2013-08-23 09:48:00,
2013-08-23 05:54:00,67.6,61.6,29.77,WNW,293,1.0,2.0,81,0.00,,,0.00,Wunderground v.1.12,2013-08-23 09:54:00,
2013-08-23 06:00:00,67.4,61.4,29.77,WNW,293,1.0,1.0,81,0.00,,,0.00,Wunderground v.1.12,2013-08-23 10:00:00,
2013-08-23 06:06:00,67.1,61.1,29.78,WNW,293,0.0,2.0,81,0.00,,,0.00,Wunderground v.1.12,2013-08-23 10:06:00,
2013-08-23 06:11:00,67.1,61.1,29.78,WNW,292,1.0,3.0,81,0.00,,,0.00,Wunderground v.1.12,2013-08-23 10:11:00,
2013-08-23 06:17:00,66.9,61.2,29.78,WNW,292,1.0,1.0,82,0.00,,,0.00,Wunderground v.1.12,2013-08-23 10:17:00,
2013-08-23 06:23:00,66.8,60.8,29.79,WNW,292,0.0,0.0,81,0.00,,,0.00,Wunderground v.1.12,2013-08-23 10:23:00,
2013-08-23 06:29:00,66.8,60.8,29.79,WNW,292,0.0,0.0,81,0.00,,,0.00,Wunderground v.1.12,2013-08-23 10:29:00,
2013-08-23 06:35:00,66.6,60.6,29.80,WNW,292,0.0,0.0,81,0.00,,,0.00,Wunderground v.1.12,2013-08-23 10:35:00,
2013-08-23 06:41:00,66.8,60.4,29.80,WNW,292,0.0,0.0,80,0.00,,,0.00,Wunderground v.1.12,2013-08-23 10:41:00,
2013-08-23 06:46:00,66.6,62.3,29.80,WNW,292,0.0,0.0,86,0.00,,,0.00,Wunderground v.1.12,2013-08-23 10:46:00,
2013-08-23 06:52:00,66.6,60.6,29.80,WNW,292,0.0,1.0,81,0.00,,,0.00,Wunderground v.1.12,2013-08-23 10:52:00,
2013-08-23 06:58:00,66.8,61.1,29.80,WNW,292,0.0,1.0,82,0.00,,,0.00,Wunderground v.1.12,2013-08-23 10:58:00,
2013-08-23 07:03:00,66.6,60.6,29.80,WNW,292,1.0,3.0,81,0.00,,,0.00,Wunderground v.1.12,2013-08-23 11:03:00,
2013-08-23 07:09:00,66.8,60.8,29.80,WNW,292,1.0,1.0,81,0.00,,,0.00,Wunderground v.1.12,2013-08-23 11:09:00,
2013-08-23 07:15:00,66.8,60.8,29.80,WNW,292,0.0,2.0,81,0.00,,,0.00,Wunderground v.1.12,2013-08-23 11:15:00,
2013-08-23 07:21:00,66.9,60.9,29.81,WNW,293,0.0,1.0,81,0.00,,,0.00,Wunderground v.1.12,2013-08-23 11:21:00,
2013-08-23 07:26:00,66.8,60.8,29.81,WNW,293,0.0,2.0,81,0.00,,,0.00,Wunderground v.1.12,2013-08-23 11:26:00,
2013-08-23 07:33:00,66.6,60.9,29.80,WNW,293,0.0,4.0,82,0.00,,,0.00,Wunderground v.1.12,2013-08-23 11:33:00,
2013-08-23 07:39:00,66.8,60.8,29.82,WNW,294,1.0,2.0,81,0.00,,,0.00,Wunderground v.1.12,2013-08-23 11:39:00,
2013-08-23 07:44:00,66.9,60.5,29.82,WNW,296,1.0,2.0,80,0.00,,,0.00,Wunderground v.1.12,2013-08-23 11:44:00,
2013-08-23 07:51:00,67.1,60.7,29.83,WNW,298,1.0,3.0,80,0.00,,,0.00,Wunderground v.1.12,2013-08-23 11:51:00,
2013-08-23 07:57:00,67.4,60.7,29.83,WNW,298,1.0,1.0,79,0.00,,,0.00,Wunderground v.1.12,2013-08-23 11:57:00,
2013-08-23 08:04:00,67.8,61.0,29.84,WNW,302,0.0,2.0,79,0.00,,,0.00,Wunderground v.1.12,2013-08-23 12:04:00,
2013-08-23 08:09:00,68.1,61.0,29.84,NW,305,0.0,0.0,78,0.00,,,0.00,Wunderground v.1.12,2013-08-23 12:09:00,
2013-08-23 08:15:00,68.3,61.2,29.84,NW,305,1.0,1.0,78,0.00,,,0.00,Wunderground v.1.12,2013-08-23 12:15:00,
2013-08-23 08:21:00,68.4,61.3,29.84,NW,305,0.0,0.0,78,0.00,,,0.00,Wunderground v.1.12,2013-08-23 12:21:00,
2013-08-23 08:27:00,68.6,60.7,29.84,NW,305,0.0,0.0,76,0.00,,,0.00,Wunderground v.1.12,2013-08-23 12:27:00,
2013-08-23 08:33:00,68.8,60.9,29.85,NW,305,0.0,0.0,76,0.00,,,0.00,Wunderground v.1.12,2013-08-23 12:33:00,
2013-08-23 08:38:00,67.8,61.0,29.83,WNW,293,1.0,5.0,79,0.00,,,0.00,Wunderground v.1.12,2013-08-23 12:38:00,
2013-08-23 08:43:00,69.1,61.2,29.85,NW,306,1.0,2.0,76,0.00,,,0.00,Wunderground v.1.12,2013-08-23 12:43:00,
2013-08-23 08:49:00,69.3,61.4,29.85,NW,306,0.0,1.0,76,0.00,,,0.00,Wunderground v.1.12,2013-08-23 12:49:00,
2013-08-23 08:54:00,69.6,60.9,29.85,NW,306,0.0,0.0,74,0.00,,,0.00,Wunderground v.1.12,2013-08-23 12:54:00,
2013-08-23 09:00:00,69.8,60.4,29.85,NW,306,0.0,1.0,72,0.00,,,0.00,Wunderground v.1.12,2013-08-23 13:00:00,
2013-08-23 09:06:00,69.9,60.1,29.86,NNW,343,1.0,3.0,71,0.00,,,0.00,Wunderground v.1.12,2013-08-23 13:06:00,
2013-08-23 09:12:00,69.9,59.3,29.86,NNW,339,1.0,5.0,69,0.00,,,0.00,Wunderground v.1.12,2013-08-23 13:12:00,
2013-08-23 09:18:00,70.1,59.5,29.86,North,355,1.0,1.0,69,0.00,,,0.00,Wunderground v.1.12,2013-08-23 13:18:00,
2013-08-23 09:24:00,70.4,59.7,29.86,NNW,344,1.0,6.0,69,0.00,,,0.00,Wunderground v.1.12,2013-08-23 13:24:00,
2013-08-23 09:30:00,70.4,59.3,29.86,NW,325,1.0,1.0,68,0.00,,,0.00,Wunderground v.1.12,2013-08-23 13:30:00,
2013-08-23 09:35:00,70.9,59.8,29.87,North,355,1.0,5.0,68,0.00,,,0.00,Wunderground v.1.12,2013-08-23 13:35:00,
2013-08-23 09:41:00,71.1,59.2,29.87,ESE,105,1.0,1.0,66,0.00,,,0.00,Wunderground v.1.12,2013-08-23 13:41:00,
2013-08-23 09:47:00,71.3,59.4,29.87,NNW,336,1.0,1.0,66,0.00,,,0.00,Wunderground v.1.12,2013-08-23 13:47:00,
2013-08-23 09:53:00,71.8,59.0,29.87,North,355,0.0,0.0,64,0.00,,,0.00,Wunderground v.1.12,2013-08-23 13:53:00,
2013-08-23 09:59:00,72.1,59.7,29.87,NNW,348,1.0,2.0,65,0.00,,,0.00,Wunderground v.1.12,2013-08-23 13:59:00,
2013-08-23 10:04:00,72.7,60.3,29.88,NNW,341,0.0,3.0,65,0.00,,,0.00,Wunderground v.1.12,2013-08-23 14:04:00,
2013-08-23 10:10:00,73.0,59.2,29.88,NNW,347,1.0,3.0,62,0.00,,,0.00,Wunderground v.1.12,2013-08-23 14:10:00,
2013-08-23 10:17:00,72.8,59.0,29.88,WNW,298,1.0,2.0,62,0.00,,,0.00,Wunderground v.1.12,2013-08-23 14:17:00,
2013-08-23 10:23:00,73.0,59.2,29.88,NW,306,1.0,2.0,62,0.00,,,0.00,Wunderground v.1.12,2013-08-23 14:23:00,
2013-08-23 10:28:00,73.2,58.9,29.88,NNW,342,1.0,1.0,61,0.00,,,0.00,Wunderground v.1.12,2013-08-23 14:28:00,
2013-08-23 10:34:00,73.3,59.9,29.88,NW,320,1.0,4.0,63,0.00,,,0.00,Wunderground v.1.12,2013-08-23 14:34:00,
2013-08-23 10:39:00,73.3,58.6,29.88,NNW,330,1.0,2.0,60,0.00,,,0.00,Wunderground v.1.12,2013-08-23 14:39:00,
2013-08-23 10:45:00,73.5,58.8,29.88,NNW,333,1.0,1.0,60,0.00,,,0.00,Wunderground v.1.12,2013-08-23 14:45:00,
2013-08-23 10:51:00,73.7,59.4,29.89,NW,307,0.0,1.0,61,0.00,,,0.00,Wunderground v.1.12,2013-08-23 14:51:00,
2013-08-23 10:57:00,74.2,58.9,29.89,NNW,346,0.0,0.0,59,0.00,,,0.00,Wunderground v.1.12,2013-08-23 14:57:00,
2013-08-23 11:03:00,74.4,59.1,29.88,WNW,286,0.0,1.0,59,0.00,,,0.00,Wunderground v.1.12,2013-08-23 15:03:00,
2013-08-23 11:09:00,74.2,59.4,29.88,WNW,286,0.0,1.0,60,0.00,,,0.00,Wunderground v.1.12,2013-08-23 15:09:00,
2013-08-23 11:15:00,74.7,59.4,29.88,WNW,298,0.0,0.0,59,0.00,,,0.00,Wunderground v.1.12,2013-08-23 15:15:00,
2013-08-23 11:20:00,75.1,58.8,29.88,NW,325,1.0,1.0,57,0.00,,,0.00,Wunderground v.1.12,2013-08-23 15:20:00,
2013-08-23 11:26:00,75.6,59.3,29.88,NNW,329,1.0,5.0,57,0.00,,,0.00,Wunderground v.1.12,2013-08-23 15:26:00,
2013-08-23 11:31:00,76.1,59.3,29.88,NNW,333,1.0,2.0,56,0.00,,,0.00,Wunderground v.1.12,2013-08-23 15:31:00,
2013-08-23 11:37:00,76.8,58.9,29.88,NNW,331,1.0,3.0,54,0.00,,,0.00,Wunderground v.1.12,2013-08-23 15:37:00,
2013-08-23 11:43:00,77.6,58.0,29.88,NNW,348,1.0,2.0,51,0.00,,,0.00,Wunderground v.1.12,2013-08-23 15:43:00,
2013-08-23 11:48:00,77.6,58.0,29.88,NNW,348,1.0,1.0,51,0.00,,,0.00,Wunderground v.1.12,2013-08-23 15:48:00,
2013-08-23 11:53:00,77.4,57.9,29.88,NNW,334,2.0,3.0,51,0.00,,,0.00,Wunderground v.1.12,2013-08-23 15:53:00,
2013-08-23 11:59:00,77.9,57.2,29.88,NNE,16,1.0,4.0,49,0.00,,,0.00,Wunderground v.1.12,2013-08-23 15:59:00,
2013-08-23 12:05:00,78.3,60.3,29.88,WNW,292,1.0,4.0,54,0.00,,,0.00,Wunderground v.1.12,2013-08-23 16:05:00,
2013-08-23 12:11:00,78.6,57.3,29.88,NNW,348,1.0,5.0,48,0.00,,,0.00,Wunderground v.1.12,2013-08-23 16:11:00,
2013-08-23 12:16:00,78.8,58.0,29.88,West,261,1.0,1.0,49,0.00,,,0.00,Wunderground v.1.12,2013-08-23 16:16:00,
2013-08-23 12:26:00,78.6,56.7,29.88,East,100,1.0,1.0,47,0.00,,,0.00,Wunderground v.1.12,2013-08-23 16:26:00,
2013-08-23 12:31:00,78.8,56.9,29.88,North,355,2.0,2.0,47,0.00,,,0.00,Wunderground v.1.12,2013-08-23 16:31:00,
2013-08-23 12:37:00,79.6,55.8,29.87,WNW,303,1.0,1.0,44,0.00,,,0.00,Wunderground v.1.12,2013-08-23 16:37:00,
2013-08-23 12:43:00,79.2,59.0,29.87,WNW,298,2.0,3.0,50,0.00,,,0.00,Wunderground v.1.12,2013-08-23 16:43:00,
2013-08-23 12:48:00,79.2,56.0,29.87,WNW,298,2.0,2.0,45,0.00,,,0.00,Wunderground v.1.12,2013-08-23 16:48:00,
2013-08-23 12:53:00,79.9,55.4,29.87,ENE,59,1.0,4.0,43,0.00,,,0.00,Wunderground v.1.12,2013-08-23 16:53:00,
2013-08-23 12:59:00,80.5,54.6,29.87,NNE,13,1.0,1.0,41,0.00,,,0.00,Wunderground v.1.12,2013-08-23 16:59:00,
2013-08-23 13:04:00,80.9,57.6,29.87,NNW,341,0.0,0.0,45,0.00,,,0.00,Wunderground v.1.12,2013-08-23 17:04:00,
2013-08-23 13:10:00,80.9,55.7,29.87,North,5,1.0,1.0,42,0.00,,,0.00,Wunderground v.1.12,2013-08-23 17:10:00,
2013-08-23 13:16:00,81.1,57.1,29.87,WNW,302,1.0,1.0,44,0.00,,,0.00,Wunderground v.1.12,2013-08-23 17:16:00,
2013-08-23 13:22:00,81.8,55.8,29.87,North,360,1.0,2.0,41,0.00,,,0.00,Wunderground v.1.12,2013-08-23 17:22:00,
2013-08-23 13:28:00,81.8,56.5,29.87,NW,324,1.0,6.0,42,0.00,,,0.00,Wunderground v.1.12,2013-08-23 17:28:00,
2013-08-23 13:34:00,81.8,57.8,29.87,NW,323,1.0,2.0,44,0.00,,,0.00,Wunderground v.1.12,2013-08-23 17:34:00,
2013-08-23 13:39:00,81.1,55.2,29.87,WSW,257,1.0,6.0,41,0.00,,,0.00,Wunderground v.1.12,2013-08-23 17:39:00,
2013-08-23 13:45:00,79.4,56.8,29.87,West,261,1.0,1.0,46,0.00,,,0.00,Wunderground v.1.12,2013-08-23 17:45:00,
2013-08-23 13:50:00,79.2,54.8,29.87,WNW,287,2.0,2.0,43,0.00,,,0.00,Wunderground v.1.12,2013-08-23 17:50:00,
2013-08-23 13:55:00,80.1,54.3,29.87,NNW,343,2.0,3.0,41,0.00,,,0.00,Wunderground v.1.12,2013-08-23 17:55:00,
2013-08-23 14:01:00,81.1,55.2,29.87,NW,319,1.0,2.0,41,0.00,,,0.00,Wunderground v.1.12,2013-08-23 18:01:00,
2013-08-23 14:07:00,81.1,54.5,29.88,NNW,331,1.0,3.0,40,0.00,,,0.00,Wunderground v.1.12,2013-08-23 18:07:00,
2013-08-23 14:13:00,81.2,52.4,29.88,NW,321,2.0,4.0,37,0.00,,,0.00,Wunderground v.1.12,2013-08-23 18:13:00,
2013-08-23 14:18:00,81.2,54.6,29.88,East,90,1.0,4.0,40,0.00,,,0.00,Wunderground v.1.12,2013-08-23 18:18:00,
2013-08-23 14:24:00,79.9,57.9,29.88,East,90,1.0,2.0,47,0.00,,,0.00,Wunderground v.1.12,2013-08-23 18:24:00,
2013-08-23 14:30:00,80.3,57.6,29.88,SE,130,0.0,0.0,46,0.00,,,0.00,Wunderground v.1.12,2013-08-23 18:30:00,
2013-08-23 14:36:00,79.0,56.5,29.88,East,89,0.0,1.0,46,0.00,,,0.00,Wunderground v.1.12,2013-08-23 18:36:00,
2013-08-23 14:41:00,77.4,58.9,29.88,East,92,1.0,1.0,53,0.00,,,0.00,Wunderground v.1.12,2013-08-23 18:41:00,
2013-08-23 14:47:00,77.7,57.0,29.88,East,91,1.0,1.0,49,0.00,,,0.00,Wunderground v.1.12,2013-08-23 18:47:00,
2013-08-23 14:53:00,78.8,56.9,29.88,East,88,0.0,1.0,47,0.00,,,0.00,Wunderground v.1.12,2013-08-23 18:53:00,
2013-08-23 14:58:00,78.5,57.7,29.88,East,98,0.0,1.0,49,0.00,,,0.00,Wunderground v.1.12,2013-08-23 18:58:00,
2013-08-23 15:04:00,77.2,57.1,29.89,East,98,1.0,2.0,50,0.00,,,0.00,Wunderground v.1.12,2013-08-23 19:04:00,
2013-08-23 15:10:00,76.5,56.5,29.89,East,86,1.0,1.0,50,0.00,,,0.00,Wunderground v.1.12,2013-08-23 19:10:00,
2013-08-23 15:16:00,76.1,56.7,29.89,East,87,0.0,0.0,51,0.00,,,0.00,Wunderground v.1.12,2013-08-23 19:16:00,
2013-08-23 15:21:00,76.0,56.0,29.89,ESE,115,0.0,2.0,50,0.00,,,0.00,Wunderground v.1.12,2013-08-23 19:21:00,
2013-08-23 15:26:00,74.9,55.6,29.89,ESE,111,1.0,3.0,51,0.00,,,0.00,Wunderground v.1.12,2013-08-23 19:26:00,
2013-08-23 15:33:00,74.4,56.2,29.90,ESE,115,1.0,1.0,53,0.00,,,0.00,Wunderground v.1.12,2013-08-23 19:33:00,
2013-08-23 15:38:00,77.4,57.3,29.89,East,90,1.0,4.0,50,0.00,,,0.00,Wunderground v.1.12,2013-08-23 19:38:00,
2013-08-23 15:44:00,73.9,55.2,29.90,East,95,1.0,3.0,52,0.00,,,0.00,Wunderground v.1.12,2013-08-23 19:44:00,
2013-08-23 15:50:00,74.2,56.5,29.90,East,100,1.0,1.0,54,0.00,,,0.00,Wunderground v.1.12,2013-08-23 19:50:00,
2013-08-23 15:55:00,74.4,55.6,29.90,ESE,105,0.0,1.0,52,0.00,,,0.00,Wunderground v.1.12,2013-08-23 19:55:00,
2013-08-23 16:01:00,74.4,56.2,29.90,East,92,0.0,0.0,53,0.00,,,0.00,Wunderground v.1.12,2013-08-23 20:01:00,
2013-08-23 16:06:00,73.9,56.2,29.90,East,86,0.0,2.0,54,0.00,,,0.00,Wunderground v.1.12,2013-08-23 20:06:00,
2013-08-23 16:11:00,73.7,55.5,29.90,East,93,1.0,1.0,53,0.00,,,0.00,Wunderground v.1.12,2013-08-23 20:11:00,
2013-08-23 16:18:00,73.3,55.1,29.90,East,91,1.0,1.0,53,0.00,,,0.00,Wunderground v.1.12,2013-08-23 20:18:00,
2013-08-23 16:23:00,73.7,55.5,29.90,ESE,106,0.0,3.0,53,0.00,,,0.00,Wunderground v.1.12,2013-08-23 20:23:00,
2013-08-23 16:28:00,74.4,56.2,29.90,East,85,0.0,3.0,53,0.00,,,0.00,Wunderground v.1.12,2013-08-23 20:28:00,
2013-08-23 16:33:00,74.9,55.6,29.90,East,88,1.0,4.0,51,0.00,,,0.00,Wunderground v.1.12,2013-08-23 20:33:00,
2013-08-23 16:38:00,74.9,55.6,29.90,East,88,1.0,1.0,51,0.00,,,0.00,Wunderground v.1.12,2013-08-23 20:38:00,
2013-08-23 16:45:00,74.9,55.6,29.90,East,90,0.0,0.0,51,0.00,,,0.00,Wunderground v.1.12,2013-08-23 20:45:00,
2013-08-23 16:51:00,75.4,56.0,29.91,East,90,0.0,0.0,51,0.00,,,0.00,Wunderground v.1.12,2013-08-23 20:51:00,
2013-08-23 16:57:00,76.0,56.0,29.91,South,188,0.0,3.0,50,0.00,,,0.00,Wunderground v.1.12,2013-08-23 20:57:00,
2013-08-23 17:03:00,75.6,55.6,29.91,ESE,107,1.0,2.0,50,0.00,,,0.00,Wunderground v.1.12,2013-08-23 21:03:00,
2013-08-23 17:08:00,74.9,55.6,29.90,East,90,1.0,5.0,51,0.00,,,0.00,Wunderground v.1.12,2013-08-23 21:08:00,
2013-08-23 17:14:00,74.9,55.0,29.91,East,88,1.0,1.0,50,0.00,,,0.00,Wunderground v.1.12,2013-08-23 21:14:00,
2013-08-23 17:19:00,74.4,55.1,29.91,East,88,0.0,1.0,51,0.00,,,0.00,Wunderground v.1.12,2013-08-23 21:19:00,
2013-08-23 17:24:00,73.9,55.2,29.91,East,88,1.0,1.0,52,0.00,,,0.00,Wunderground v.1.12,2013-08-23 21:24:00,
2013-08-23 17:30:00,73.3,55.6,29.91,East,89,0.0,0.0,54,0.00,,,0.00,Wunderground v.1.12,2013-08-23 21:30:00,
2013-08-23 17:35:00,73.3,56.7,29.92,East,89,0.0,0.0,56,0.00,,,0.00,Wunderground v.1.12,2013-08-23 21:35:00,
2013-08-23 17:41:00,74.0,55.8,29.92,East,89,0.0,1.0,53,0.00,,,0.00,Wunderground v.1.12,2013-08-23 21:41:00,
2013-08-23 17:48:00,74.2,56.0,29.92,East,89,0.0,0.0,53,0.00,,,0.00,Wunderground v.1.12,2013-08-23 21:48:00,
2013-08-23 17:53:00,73.9,56.2,29.92,East,89,0.0,0.0,54,0.00,,,0.00,Wunderground v.1.12,2013-08-23 21:53:00,
2013-08-23 17:58:00,73.3,55.6,29.92,East,89,0.0,0.0,54,0.00,,,0.00,Wunderground v.1.12,2013-08-23 21:58:00,
2013-08-23 18:03:00,72.8,56.2,29.92,East,89,0.0,0.0,56,0.00,,,0.00,Wunderground v.1.12,2013-08-23 22:03:00,
2013-08-23 18:09:00,72.7,55.6,29.92,East,89,0.0,1.0,55,0.00,,,0.00,Wunderground v.1.12,2013-08-23 22:09:00,
2013-08-23 18:15:00,72.5,56.4,29.92,East,89,0.0,0.0,57,0.00,,,0.00,Wunderground v.1.12,2013-08-23 22:15:00,
2013-08-23 18:20:00,72.1,56.0,29.93,East,89,0.0,0.0,57,0.00,,,0.00,Wunderground v.1.12,2013-08-23 22:20:00,
2013-08-23 18:26:00,71.8,59.4,29.93,East,89,0.0,0.0,65,0.00,,,0.00,Wunderground v.1.12,2013-08-23 22:26:00,
2013-08-23 18:32:00,71.3,59.8,29.93,East,89,0.0,0.0,67,0.00,,,0.00,Wunderground v.1.12,2013-08-23 22:32:00,
2013-08-23 18:38:00,72.8,56.2,29.92,East,90,0.0,2.0,56,0.00,,,0.00,Wunderground v.1.12,2013-08-23 22:38:00,
2013-08-23 18:44:00,70.3,59.6,29.93,East,89,0.0,0.0,69,0.00,,,0.00,Wunderground v.1.12,2013-08-23 22:44:00,
2013-08-23 18:50:00,69.9,59.7,29.93,East,89,0.0,0.0,70,0.00,,,0.00,Wunderground v.1.12,2013-08-23 22:50:00,
2013-08-23 18:56:00,69.4,58.0,29.93,East,89,0.0,0.0,67,0.00,,,0.00,Wunderground v.1.12,2013-08-23 22:56:00,
2013-08-23 19:02:00,69.3,59.1,29.93,East,89,0.0,0.0,70,0.00,,,0.00,Wunderground v.1.12,2013-08-23 23:02:00,
2013-08-23 19:08:00,71.1,59.6,29.93,East,90,0.0,1.0,67,0.00,,,0.00,Wunderground v.1.12,2013-08-23 23:08:00,
2013-08-23 19:14:00,68.4,57.8,29.94,East,89,0.0,0.0,69,0.00,,,0.00,Wunderground v.1.12,2013-08-23 23:14:00,
2013-08-23 19:20:00,68.3,58.9,29.95,East,89,0.0,0.0,72,0.00,,,0.00,Wunderground v.1.12,2013-08-23 23:20:00,
2013-08-23 19:25:00,67.6,59.4,29.95,East,89,0.0,0.0,75,0.00,,,0.00,Wunderground v.1.12,2013-08-23 23:25:00,
2013-08-23 19:30:00,66.9,59.1,29.95,East,89,0.0,0.0,76,0.00,,,0.00,Wunderground v.1.12,2013-08-23 23:30:00,
2013-08-23 19:36:00,66.4,58.2,29.95,East,89,0.0,0.0,75,0.00,,,0.00,Wunderground v.1.12,2013-08-23 23:36:00,
2013-08-23 19:41:00,66.0,57.8,29.95,East,89,0.0,0.0,75,0.00,,,0.00,Wunderground v.1.12,2013-08-23 23:41:00,
2013-08-23 19:47:00,65.6,57.8,29.95,East,89,0.0,0.0,76,0.00,,,0.00,Wunderground v.1.12,2013-08-23 23:47:00,
2013-08-23 19:53:00,65.5,58.5,29.95,East,89,0.0,0.0,78,0.00,,,0.00,Wunderground v.1.12,2013-08-23 23:53:00,
2013-08-23 19:59:00,65.2,58.2,29.95,East,89,0.0,0.0,78,0.00,,,0.00,Wunderground v.1.12,2013-08-23 23:59:00,
2013-08-23 20:05:00,65.0,58.0,29.96,East,89,0.0,0.0,78,0.00,,,0.00,Wunderground v.1.12,2013-08-24 00:05:00,
2013-08-23 20:11:00,66.6,58.8,29.95,N/A,-737280,0.0,0.0,76,0.00,,,0.00,Wunderground v.1.12,2013-08-24 00:11:00,
2013-08-23 20:17:00,64.7,58.0,29.96,East,89,0.0,0.0,79,0.00,,,0.00,Wunderground v.1.12,2013-08-24 00:17:00,
2013-08-23 20:23:00,64.0,58.1,29.97,East,89,0.0,0.0,81,0.00,,,0.00,Wunderground v.1.12,2013-08-24 00:23:00,
2013-08-23 20:29:00,63.4,58.1,29.97,East,89,0.0,0.0,83,0.00,,,0.00,Wunderground v.1.12,2013-08-24 00:29:00,
2013-08-23 20:35:00,62.9,57.7,29.98,East,89,0.0,0.0,83,0.00,,,0.00,Wunderground v.1.12,2013-08-24 00:35:00,
2013-08-23 20:41:00,62.6,57.7,29.98,East,89,0.0,0.0,84,0.00,,,0.00,Wunderground v.1.12,2013-08-24 00:41:00,
2013-08-23 20:46:00,62.3,57.4,29.98,East,89,0.0,0.0,84,0.00,,,0.00,Wunderground v.1.12,2013-08-24 00:46:00,
2013-08-23 20:53:00,62.1,57.2,29.99,East,89,0.0,0.0,84,0.00,,,0.00,Wunderground v.1.12,2013-08-24 00:53:00,
2013-08-23 20:58:00,62.0,57.1,29.99,East,89,0.0,0.0,84,0.00,,,0.00,Wunderground v.1.12,2013-08-24 00:58:00,
2013-08-23 21:03:00,62.0,57.4,29.99,East,89,0.0,0.0,85,0.00,,,0.00,Wunderground v.1.12,2013-08-24 01:03:00,
2013-08-23 21:08:00,62.0,57.4,29.99,East,89,0.0,0.0,85,0.00,,,0.00,Wunderground v.1.12,2013-08-24 01:08:00,
2013-08-23 21:15:00,62.0,57.4,29.99,East,89,0.0,0.0,85,0.00,,,0.00,Wunderground v.1.12,2013-08-24 01:15:00,
2013-08-23 21:21:00,61.8,56.9,30.00,East,89,0.0,0.0,84,0.00,,,0.00,Wunderground v.1.12,2013-08-24 01:21:00,
2013-08-23 21:26:00,61.6,56.4,30.00,East,89,0.0,0.0,83,0.00,,,0.00,Wunderground v.1.12,2013-08-24 01:26:00,
2013-08-23 21:32:00,61.6,56.4,30.00,East,89,0.0,0.0,83,0.00,,,0.00,Wunderground v.1.12,2013-08-24 01:32:00,
2013-08-23 21:37:00,61.8,56.2,30.00,East,89,0.0,0.0,82,0.00,,,0.00,Wunderground v.1.12,2013-08-24 01:37:00,
2013-08-23 21:43:00,61.8,56.2,30.00,East,89,0.0,0.0,82,0.00,,,0.00,Wunderground v.1.12,2013-08-24 01:43:00,
2013-08-23 21:48:00,62.0,56.1,30.01,East,89,0.0,0.0,81,0.00,,,0.00,Wunderground v.1.12,2013-08-24 01:48:00,
2013-08-23 21:53:00,62.0,56.1,30.01,East,89,0.0,0.0,81,0.00,,,0.00,Wunderground v.1.12,2013-08-24 01:53:00,
2013-08-23 21:59:00,62.0,56.4,30.01,East,89,0.0,0.0,82,0.00,,,0.00,Wunderground v.1.12,2013-08-24 01:59:00,
2013-08-23 22:05:00,61.8,56.2,30.01,East,89,0.0,0.0,82,0.00,,,0.00,Wunderground v.1.12,2013-08-24 02:05:00,
2013-08-23 22:11:00,61.8,55.9,30.01,East,89,0.0,0.0,81,0.00,,,0.00,Wunderground v.1.12,2013-08-24 02:11:00,
2013-08-23 22:17:00,61.8,54.5,30.01,East,89,0.0,0.0,77,0.00,,,0.00,Wunderground v.1.12,2013-08-24 02:17:00,
2013-08-23 22:24:00,61.8,54.2,30.02,East,89,0.0,0.0,76,0.00,,,0.00,Wunderground v.1.12,2013-08-24 02:24:00,
2013-08-23 22:29:00,61.8,53.4,30.02,East,89,0.0,0.0,74,0.00,,,0.00,Wunderground v.1.12,2013-08-24 02:29:00,
2013-08-23 22:35:00,61.8,53.8,30.02,NW,324,0.0,0.0,75,0.00,,,0.00,Wunderground v.1.12,2013-08-24 02:35:00,
2013-08-23 22:40:00,61.6,52.9,30.02,NW,324,0.0,0.0,73,0.00,,,0.00,Wunderground v.1.12,2013-08-24 02:40:00,
2013-08-23 22:45:00,61.8,52.3,30.02,NW,324,0.0,0.0,71,0.00,,,0.00,Wunderground v.1.12,2013-08-24 02:45:00,
2013-08-23 22:51:00,62.0,51.7,30.03,NW,324,0.0,0.0,69,0.00,,,0.00,Wunderground v.1.12,2013-08-24 02:51:00,
2013-08-23 22:57:00,62.1,51.8,30.03,NW,325,0.0,0.0,69,0.00,,,0.00,Wunderground v.1.12,2013-08-24 02:57:00,
2013-08-23 23:03:00,62.3,51.6,30.04,NW,325,0.0,1.0,68,0.00,,,0.00,Wunderground v.1.12,2013-08-24 03:03:00,
2013-08-23 23:09:00,61.8,53.8,30.02,NW,315,0.0,2.0,75,0.00,,,0.00,Wunderground v.1.12,2013-08-24 03:09:00,
2013-08-23 23:14:00,62.1,51.4,30.04,NW,325,0.0,0.0,68,0.00,,,0.00,Wunderground v.1.12,2013-08-24 03:14:00,
2013-08-23 23:20:00,61.8,51.5,30.05,NW,325,0.0,0.0,69,0.00,,,0.00,Wunderground v.1.12,2013-08-24 03:20:00,
2013-08-23 23:26:00,61.6,51.3,30.05,NW,325,0.0,1.0,69,0.00,,,0.00,Wunderground v.1.12,2013-08-24 03:26:00,
2013-08-23 23:31:00,61.5,51.2,30.05,NW,325,0.0,0.0,69,0.00,,,0.00,Wunderground v.1.12,2013-08-24 03:31:00,
2013-08-23 23:38:00,61.5,51.2,30.05,NW,315,0.0,2.0,69,0.00,,,0.00,Wunderground v.1.12,2013-08-24 03:38:00,
2013-08-23 23:43:00,61.0,50.4,30.05,NW,325,0.0,0.0,68,0.00,,,0.00,Wunderground v.1.12,2013-08-24 03:43:00,
2013-08-23 23:48:00,61.0,50.4,30.05,NW,325,0.0,0.0,68,0.00,,,0.00,Wunderground v.1.12,2013-08-24 03:48:00,
2013-08-23 23:54:00,61.0,50.0,30.05,NW,325,0.0,0.0,67,0.00,,,0.00,Wunderground v.1.12,2013-08-24 03:54:00,